Time;durP1;ratioP1;P1;durP2;ratioP2;P2;SDS_P1;SDS_P2;PMS_P1;PMS_P2;Temp;Humidity;BMP_temperature;BMP_pressure;BME280_temperature;BME280_humidity;BME280_pressure;Samples;Min_cycle;Max_cycle;Signal;HPM_P1;HPM_P2
2024/01/07 00:00:33;;;;;;;13.30;1.90;;;26.00;62.90;;;;;;5052591;28;20029;-89
2024/01/07 00:03:00;;;;;;;8.57;2.10;;;26.00;63.10;;;;;;5049271;28;20037;-83
2024/01/07 00:05:27;;;;;;;9.57;1.70;;;26.10;62.70;;;;;;5026012;28;20135;-82
2024/01/07 00:07:55;;;;;;;7.22;1.65;;;26.20;62.70;;;;;;5044760;28;20055;-88
2024/01/07 00:10:23;;;;;;;10.07;2.33;;;26.20;62.40;;;;;;5037033;28;20072;-89
2024/01/07 00:12:52;;;;;;;9.75;2.00;;;26.30;62.40;;;;;;5048314;28;20052;-83
2024/01/07 00:15:19;;;;;;;7.28;1.83;;;26.30;62.30;;;;;;5053073;28;20032;-86
2024/01/07 00:17:46;;;;;;;8.88;2.05;;;26.30;62.30;;;;;;5034672;28;20075;-87
2024/01/07 00:20:14;;;;;;;9.02;1.80;;;26.40;62.50;;;;;;5039800;28;20028;-87
2024/01/07 00:22:42;;;;;;;12.57;2.03;;;26.40;62.50;;;;;;5042490;28;20037;-88
2024/01/07 00:25:09;;;;;;;13.02;1.98;;;26.40;62.20;;;;;;5035529;28;20031;-85
2024/01/07 00:27:37;;;;;;;12.27;1.80;;;26.50;62.00;;;;;;5035581;28;20042;-82
2024/01/07 00:30:05;;;;;;;8.13;1.90;;;26.50;61.90;;;;;;5045137;28;20039;-86
2024/01/07 00:32:36;;;;;;;9.95;1.80;;;26.60;61.70;;;;;;5055753;28;20491;-87
2024/01/07 00:35:04;;;;;;;8.25;2.10;;;26.60;61.40;;;;;;5036308;28;20100;-90
2024/01/07 00:37:31;;;;;;;11.65;2.47;;;26.70;61.20;;;;;;5055457;28;20029;-86
2024/01/07 00:39:58;;;;;;;11.48;1.83;;;26.70;60.90;;;;;;5055147;28;20102;-87
2024/01/07 00:42:26;;;;;;;8.20;1.98;;;26.80;60.70;;;;;;5054953;28;20044;-87
2024/01/07 00:44:53;;;;;;;11.32;1.77;;;26.80;60.20;;;;;;5054838;28;20021;-86
2024/01/07 00:47:21;;;;;;;9.18;1.77;;;26.80;60.30;;;;;;5054937;28;20104;-86
2024/01/07 00:49:51;;;;;;;8.77;2.10;;;26.90;60.30;;;;;;5055554;28;20032;-85
2024/01/07 00:52:18;;;;;;;6.32;1.85;;;26.90;59.90;;;;;;5055117;28;20036;-87
2024/01/07 00:54:46;;;;;;;7.43;1.60;;;27.00;60.00;;;;;;5055356;28;20024;-85
2024/01/07 00:57:14;;;;;;;8.02;1.88;;;26.90;59.90;;;;;;5046032;28;20026;-87
2024/01/07 00:59:41;;;;;;;10.98;2.20;;;26.90;59.80;;;;;;5046380;28;20484;-77
2024/01/07 01:02:09;;;;;;;8.00;2.10;;;26.90;59.70;;;;;;5052659;28;20023;-87
2024/01/07 01:04:40;;;;;;;8.90;2.10;;;27.00;59.80;;;;;;5053546;28;20044;-88
2024/01/07 01:07:07;;;;;;;6.55;1.98;;;27.10;59.70;;;;;;5050331;28;20120;-88
2024/01/07 01:09:35;;;;;;;9.68;2.03;;;27.10;59.70;;;;;;5053786;28;20083;-87
2024/01/07 01:12:03;;;;;;;8.73;2.00;;;27.10;59.50;;;;;;5052964;28;20115;-90
2024/01/07 01:14:33;;;;;;;7.93;2.08;;;27.10;59.20;;;;;;5054812;28;20387;-87
2024/01/07 01:17:00;;;;;;;9.70;1.90;;;27.10;59.50;;;;;;5054014;28;20405;-84
2024/01/07 01:19:28;;;;;;;12.68;1.77;;;27.10;59.60;;;;;;5054497;28;20632;-88
2024/01/07 01:21:55;;;;;;;12.98;2.35;;;27.00;59.50;;;;;;5054312;28;20029;-88
2024/01/07 01:24:23;;;;;;;6.38;1.73;;;27.10;59.80;;;;;;5039660;28;20033;-87
2024/01/07 01:26:50;;;;;;;8.27;1.70;;;27.10;59.90;;;;;;5047267;28;20079;-85
2024/01/07 01:29:18;;;;;;;8.57;1.95;;;27.10;59.90;;;;;;5043335;28;20037;-90
2024/01/07 01:31:46;;;;;;;8.40;1.95;;;27.10;59.90;;;;;;5034789;28;20052;-88
2024/01/07 01:34:13;;;;;;;7.70;1.60;;;27.10;59.50;;;;;;5031450;28;20021;-80
2024/01/07 01:36:40;;;;;;;11.82;1.80;;;27.00;59.70;;;;;;5030257;28;20025;-79
2024/01/07 01:39:08;;;;;;;7.65;1.92;;;27.00;60.10;;;;;;5032323;28;20120;-87
2024/01/07 01:41:36;;;;;;;10.02;1.90;;;27.00;60.40;;;;;;5027665;28;20021;-87
2024/01/07 01:44:03;;;;;;;10.38;2.08;;;27.10;60.30;;;;;;5031896;28;20484;-88
2024/01/07 01:46:32;;;;;;;8.65;2.20;;;27.20;60.10;;;;;;5031348;28;20100;-87
2024/01/07 01:49:00;;;;;;;12.50;1.90;;;27.10;59.90;;;;;;5023966;28;20436;-88
2024/01/07 01:51:28;;;;;;;10.25;2.30;;;27.10;59.80;;;;;;5035169;28;20037;-88
2024/01/07 01:53:57;;;;;;;11.43;2.17;;;27.00;59.90;;;;;;5032614;28;20025;-85
2024/01/07 01:56:29;;;;;;;6.85;1.92;;;27.00;60.00;;;;;;5032635;28;20021;-89
2024/01/07 01:58:56;;;;;;;9.00;2.38;;;27.00;60.30;;;;;;5030643;28;20025;-86
2024/01/07 02:01:31;;;;;;;10.20;2.15;;;27.00;60.70;;;;;;5031788;28;20079;-85
2024/01/07 02:03:58;;;;;;;9.07;1.80;;;27.10;61.00;;;;;;5030910;28;20061;-85
2024/01/07 02:06:26;;;;;;;7.75;1.88;;;27.10;60.80;;;;;;5033322;28;20108;-81
2024/01/07 02:08:53;;;;;;;10.50;2.08;;;27.10;60.60;;;;;;5029269;28;20056;-83
2024/01/07 02:11:22;;;;;;;10.50;2.33;;;27.20;61.20;;;;;;5032243;28;20029;-88
2024/01/07 02:13:50;;;;;;;12.35;2.47;;;27.30;62.40;;;;;;5049628;28;20025;-84
2024/01/07 02:16:19;;;;;;;9.00;2.45;;;27.30;63.30;;;;;;5041712;28;20025;-86
2024/01/07 02:18:46;;;;;;;6.70;2.17;;;27.40;63.40;;;;;;5037409;28;20025;-82
2024/01/07 02:21:18;;;;;;;9.73;2.28;;;27.50;63.10;;;;;;5031331;28;20483;-87
2024/01/07 02:23:45;;;;;;;10.20;2.40;;;27.50;63.00;;;;;;5032116;28;20081;-78
2024/01/07 02:26:13;;;;;;;8.93;2.28;;;27.50;63.20;;;;;;5032725;28;20025;-88
2024/01/07 02:28:40;;;;;;;9.38;2.13;;;27.50;62.40;;;;;;5030264;28;20037;-83
2024/01/07 02:31:08;;;;;;;13.02;2.80;;;27.50;62.50;;;;;;5031913;28;20021;-78
2024/01/07 02:33:35;;;;;;;9.65;2.13;;;27.50;62.60;;;;;;5048271;28;20029;-86
2024/01/07 02:36:03;;;;;;;12.07;2.60;;;27.50;63.00;;;;;;5036717;28;20021;-77
2024/01/07 02:38:30;;;;;;;9.30;2.65;;;27.50;63.00;;;;;;5035113;28;20032;-83
2024/01/07 02:40:58;;;;;;;10.63;2.80;;;27.60;63.00;;;;;;5039155;28;20112;-77
2024/01/07 02:43:25;;;;;;;13.13;2.90;;;27.60;63.10;;;;;;5051727;28;20028;-85
2024/01/07 02:45:52;;;;;;;12.25;2.13;;;27.60;63.10;;;;;;5052571;28;20468;-86
2024/01/07 02:48:20;;;;;;;11.13;2.45;;;27.70;62.90;;;;;;5034420;28;20560;-86
2024/01/07 02:50:47;;;;;;;12.80;2.80;;;27.70;62.90;;;;;;5033358;28;20025;-84
2024/01/07 02:53:15;;;;;;;11.40;2.53;;;27.60;62.60;;;;;;5023559;28;20034;-88
2024/01/07 02:55:42;;;;;;;11.23;2.83;;;27.60;62.90;;;;;;5032354;28;20026;-84
2024/01/07 02:58:09;;;;;;;17.58;2.40;;;27.60;63.20;;;;;;5023819;28;20109;-87
2024/01/07 03:00:37;;;;;;;13.57;2.30;;;27.60;63.30;;;;;;5032429;28;20040;-78
2024/01/07 03:03:04;;;;;;;11.93;2.80;;;27.60;63.30;;;;;;5036553;28;20477;-76
2024/01/07 03:05:32;;;;;;;12.35;2.20;;;27.50;63.50;;;;;;5032100;28;20040;-85
2024/01/07 03:08:00;;;;;;;12.23;2.92;;;27.50;63.70;;;;;;5031899;28;20071;-85
2024/01/07 03:10:28;;;;;;;13.00;2.63;;;27.60;63.90;;;;;;5031826;28;20025;-79
2024/01/07 03:12:55;;;;;;;10.35;2.30;;;27.70;63.50;;;;;;5024385;28;20026;-87
2024/01/07 03:15:22;;;;;;;9.13;2.53;;;27.70;63.10;;;;;;5031378;28;20108;-90
2024/01/07 03:17:50;;;;;;;12.88;2.53;;;27.80;62.90;;;;;;5030699;28;20527;-86
2024/01/07 03:20:17;;;;;;;15.63;2.60;;;27.70;63.00;;;;;;5031346;28;20026;-84
2024/01/07 03:22:45;;;;;;;16.00;3.15;;;27.70;62.90;;;;;;5032136;28;20026;-83
2024/01/07 03:25:12;;;;;;;11.85;2.42;;;27.70;62.80;;;;;;5022645;28;20022;-88
2024/01/07 03:27:39;;;;;;;11.75;2.58;;;27.70;62.80;;;;;;5030624;28;20025;-86
2024/01/07 03:30:10;;;;;;;13.55;2.75;;;27.80;62.40;;;;;;5030179;28;20045;-80
2024/01/07 03:32:37;;;;;;;10.30;2.63;;;27.80;62.50;;;;;;5032257;28;20032;-85
2024/01/07 03:35:05;;;;;;;11.65;2.63;;;27.80;62.40;;;;;;5029489;28;20108;-87
2024/01/07 03:37:32;;;;;;;14.82;3.30;;;27.80;62.20;;;;;;5030696;28;20040;-86
2024/01/07 03:40:03;;;;;;;8.88;2.70;;;27.80;62.20;;;;;;5031417;28;20083;-88
2024/01/07 03:42:31;;;;;;;10.73;2.70;;;27.70;62.10;;;;;;5035583;28;20026;-88
2024/01/07 03:44:59;;;;;;;13.40;2.50;;;27.60;61.90;;;;;;5034828;28;20049;-85
2024/01/07 03:47:35;;;;;;;11.45;2.92;;;27.50;62.00;;;;;;5034953;28;20025;-87
2024/01/07 03:50:02;;;;;;;11.80;2.50;;;27.40;62.00;;;;;;5035926;28;20385;-87
2024/01/07 03:52:30;;;;;;;10.88;2.90;;;27.30;62.10;;;;;;5036230;28;20044;-85
2024/01/07 03:54:57;;;;;;;10.38;2.03;;;27.30;62.50;;;;;;5036129;28;20469;-81
2024/01/07 03:57:24;;;;;;;8.98;2.20;;;27.30;62.50;;;;;;5038833;28;20092;-86
2024/01/07 03:59:52;;;;;;;8.55;2.50;;;27.30;62.40;;;;;;5042708;28;20025;-88
2024/01/07 04:02:19;;;;;;;14.13;2.75;;;27.30;62.00;;;;;;5038085;28;20026;-81
2024/01/07 04:04:47;;;;;;;11.70;2.20;;;27.20;62.60;;;;;;5043543;28;20088;-89
2024/01/07 04:07:14;;;;;;;13.07;2.47;;;27.10;63.00;;;;;;5039014;28;20059;-90
2024/01/07 04:09:44;;;;;;;12.73;2.38;;;27.20;63.20;;;;;;5038591;28;20041;-89
2024/01/07 04:12:11;;;;;;;9.20;2.03;;;27.20;63.40;;;;;;5036621;28;20022;-88
2024/01/07 04:14:40;;;;;;;13.90;2.95;;;27.20;63.10;;;;;;5035924;28;20104;-87
2024/01/07 04:17:08;;;;;;;10.93;2.42;;;27.30;63.20;;;;;;5054820;28;20032;-83
2024/01/07 04:19:41;;;;;;;13.65;2.58;;;27.30;63.40;;;;;;5039793;28;20029;-83
2024/01/07 04:22:08;;;;;;;10.98;2.05;;;27.30;63.20;;;;;;5034849;28;20048;-89
2024/01/07 04:24:35;;;;;;;11.13;2.55;;;27.30;63.30;;;;;;5035135;28;20028;-82
2024/01/07 04:27:03;;;;;;;11.82;2.50;;;27.20;63.20;;;;;;5041683;28;20100;-88
2024/01/07 04:29:30;;;;;;;12.40;2.38;;;27.20;63.30;;;;;;5035864;28;20072;-90
2024/01/07 04:31:57;;;;;;;7.10;2.03;;;27.20;63.10;;;;;;5035358;28;20473;-89
2024/01/07 04:34:25;;;;;;;10.55;2.42;;;27.20;63.20;;;;;;5035576;28;20550;-89
2024/01/07 04:36:52;;;;;;;13.15;2.60;;;27.20;63.10;;;;;;5035503;28;20472;-89
2024/01/07 04:39:20;;;;;;;9.23;2.92;;;27.10;63.10;;;;;;5035456;28;20037;-86
2024/01/07 04:41:47;;;;;;;12.63;2.53;;;27.10;63.50;;;;;;5037903;28;20036;-88
2024/01/07 04:44:15;;;;;;;11.70;2.65;;;27.00;64.10;;;;;;5048464;28;20031;-89
2024/01/07 04:46:43;;;;;;;16.88;2.90;;;27.00;64.70;;;;;;5045082;28;20103;-87
2024/01/07 04:49:10;;;;;;;9.30;2.50;;;27.10;65.30;;;;;;5030049;28;20034;-90
2024/01/07 04:51:37;;;;;;;11.82;2.40;;;27.10;65.40;;;;;;5035711;28;20021;-87
2024/01/07 04:54:05;;;;;;;14.10;2.85;;;27.10;65.80;;;;;;5042317;28;20459;-86
2024/01/07 04:56:33;;;;;;;12.55;2.47;;;27.20;66.20;;;;;;5035340;28;20049;-89
2024/01/07 04:59:02;;;;;;;8.15;2.30;;;27.20;66.20;;;;;;5053776;28;20061;-84
2024/01/07 05:01:29;;;;;;;13.45;2.92;;;27.20;66.30;;;;;;5050794;28;20075;-87
2024/01/07 05:03:57;;;;;;;12.00;2.25;;;27.20;66.20;;;;;;5045117;28;20064;-82
2024/01/07 05:06:24;;;;;;;12.70;2.83;;;27.30;66.10;;;;;;5040389;28;20063;-88
2024/01/07 05:08:54;;;;;;;13.35;2.47;;;27.30;66.40;;;;;;5030979;28;20037;-81
2024/01/07 05:11:22;;;;;;;10.27;2.60;;;27.30;66.80;;;;;;5056339;28;20028;-89
2024/01/07 05:13:49;;;;;;;16.38;2.65;;;27.30;66.50;;;;;;5049627;28;20021;-84
2024/01/07 05:16:21;;;;;;;12.32;2.58;;;27.30;66.60;;;;;;5048074;28;20100;-85
2024/01/07 05:18:48;;;;;;;9.80;2.03;;;27.30;66.40;;;;;;5048347;28;20032;-81
2024/01/07 05:21:18;;;;;;;9.82;2.10;;;27.30;66.20;;;;;;5049413;28;20029;-86
2024/01/07 05:23:46;;;;;;;10.05;2.30;;;27.30;66.00;;;;;;5036397;28;20025;-85
2024/01/07 05:26:13;;;;;;;13.38;2.40;;;27.30;65.90;;;;;;5031423;28;20030;-83
2024/01/07 05:28:41;;;;;;;14.30;2.63;;;27.30;66.00;;;;;;5027920;28;20049;-85
2024/01/07 05:31:19;;;;;;;9.48;2.38;;;27.30;66.20;;;;;;5033890;28;20396;-89
2024/01/07 05:33:46;;;;;;;19.27;2.50;;;27.30;66.40;;;;;;5032043;28;20057;-84
2024/01/07 05:36:14;;;;;;;13.55;2.75;;;27.30;66.50;;;;;;5025125;28;20017;-88
2024/01/07 05:38:43;;;;;;;10.20;2.03;;;27.30;66.20;;;;;;5026218;28;20079;-82
2024/01/07 05:41:10;;;;;;;13.32;2.70;;;27.40;66.20;;;;;;5028095;28;20060;-86
2024/01/07 05:43:37;;;;;;;12.45;2.20;;;27.30;66.00;;;;;;5039228;28;20061;-79
2024/01/07 05:46:05;;;;;;;12.25;2.55;;;27.40;65.60;;;;;;5020596;28;20028;-91
2024/01/07 05:48:45;;;;;;;10.00;2.45;;;27.40;65.60;;;;;;5028600;28;20042;-85
2024/01/07 05:51:18;;;;;;;9.32;2.55;;;27.40;65.50;;;;;;5031742;28;20025;-88
2024/01/07 05:53:46;;;;;;;11.70;2.58;;;27.40;65.80;;;;;;5049355;28;20093;-79
2024/01/07 05:56:13;;;;;;;12.15;2.47;;;27.40;65.60;;;;;;5044387;28;20022;-88
2024/01/07 05:58:41;;;;;;;11.52;2.78;;;27.40;65.60;;;;;;5038875;28;20029;-85
2024/01/07 06:01:09;;;;;;;9.43;2.33;;;27.40;65.70;;;;;;5043517;28;20036;-83
2024/01/07 06:03:36;;;;;;;12.93;2.97;;;27.50;65.60;;;;;;5037256;28;20033;-88
2024/01/07 06:06:04;;;;;;;13.02;2.45;;;27.40;65.40;;;;;;5032917;28;20022;-86
2024/01/07 06:08:32;;;;;;;15.07;2.63;;;27.50;65.30;;;;;;5034013;28;20033;-81
2024/01/07 06:10:59;;;;;;;12.45;2.63;;;27.50;65.20;;;;;;5020869;28;20475;-85
2024/01/07 06:13:27;;;;;;;18.08;2.75;;;27.50;64.90;;;;;;5023167;28;20041;-80
2024/01/07 06:15:56;;;;;;;11.13;2.20;;;27.50;64.90;;;;;;5032164;28;20029;-88
2024/01/07 06:18:23;;;;;;;15.05;2.95;;;27.50;64.60;;;;;;5030916;28;20025;-89
2024/01/07 06:20:50;;;;;;;13.70;2.78;;;27.60;64.70;;;;;;5029404;28;20030;-82
2024/01/07 06:23:18;;;;;;;14.45;2.20;;;27.60;64.60;;;;;;5037237;28;20025;-87
2024/01/07 06:25:45;;;;;;;10.50;3.25;;;27.70;64.50;;;;;;5046769;28;20032;-82
2024/01/07 06:28:15;;;;;;;10.50;2.25;;;27.70;64.30;;;;;;5051635;28;20045;-88
2024/01/07 06:30:45;;;;;;;13.52;2.35;;;27.60;64.00;;;;;;5032298;28;20021;-89
2024/01/07 06:33:17;;;;;;;13.82;2.67;;;27.50;63.90;;;;;;5039776;28;20060;-90
2024/01/07 06:35:45;;;;;;;8.80;2.50;;;27.60;63.90;;;;;;5031386;28;20496;-90
2024/01/07 06:38:12;;;;;;;14.57;2.83;;;27.50;64.00;;;;;;5048322;28;20379;-91
2024/01/07 06:40:40;;;;;;;14.02;2.60;;;27.50;64.10;;;;;;5017007;28;20041;-90
2024/01/07 06:43:07;;;;;;;14.10;2.65;;;27.50;64.40;;;;;;5019632;28;20072;-85
2024/01/07 06:45:34;;;;;;;13.15;3.10;;;27.50;64.60;;;;;;5019836;28;20036;-89
2024/01/07 06:48:02;;;;;;;18.02;2.63;;;27.40;64.70;;;;;;5024790;28;20044;-89
2024/01/07 06:50:29;;;;;;;12.95;2.97;;;27.40;64.90;;;;;;5036979;28;20473;-87
2024/01/07 06:52:58;;;;;;;15.10;2.92;;;27.40;64.70;;;;;;5030880;28;20160;-87
2024/01/07 06:55:29;;;;;;;13.32;2.80;;;27.40;64.60;;;;;;5026754;28;20388;-79
2024/01/07 06:57:56;;;;;;;12.05;2.65;;;27.40;64.10;;;;;;5036918;28;20546;-84
2024/01/07 07:00:24;;;;;;;11.23;2.70;;;27.30;64.40;;;;;;5046597;28;20480;-87
2024/01/07 07:02:52;;;;;;;14.80;3.67;;;27.20;64.80;;;;;;5034640;28;20071;-87
2024/01/07 07:05:19;;;;;;;14.25;2.90;;;27.20;64.90;;;;;;5019182;28;20046;-86
2024/01/07 07:07:47;;;;;;;13.38;2.63;;;27.10;64.90;;;;;;5037754;28;20120;-87
2024/01/07 07:10:14;;;;;;;14.57;2.83;;;27.10;65.00;;;;;;5035219;28;20041;-87
2024/01/07 07:12:41;;;;;;;12.25;2.60;;;27.10;64.60;;;;;;5021943;28;20022;-87
2024/01/07 07:15:10;;;;;;;8.80;2.67;;;27.10;64.60;;;;;;5038817;28;20040;-85
2024/01/07 07:17:40;;;;;;;17.05;3.00;;;27.20;64.50;;;;;;5040491;28;20056;-85
2024/01/07 07:20:08;;;;;;;16.67;3.42;;;27.20;64.50;;;;;;5043056;28;20025;-78
2024/01/07 07:22:36;;;;;;;14.63;3.63;;;27.30;64.50;;;;;;5049685;28;20508;-83
2024/01/07 07:25:04;;;;;;;12.88;3.53;;;27.30;64.30;;;;;;5035486;28;20082;-86
2024/01/07 07:27:34;;;;;;;18.10;4.60;;;27.30;63.90;;;;;;5049516;28;20037;-86
2024/01/07 07:30:01;;;;;;;14.35;2.90;;;27.30;63.50;;;;;;5036121;28;20549;-86
2024/01/07 07:32:29;;;;;;;15.60;3.80;;;27.30;62.50;;;;;;5036377;28;20026;-83
2024/01/07 07:34:57;;;;;;;12.43;2.97;;;27.20;63.00;;;;;;5035258;28;20044;-87
2024/01/07 07:37:25;;;;;;;13.10;2.97;;;27.30;62.50;;;;;;5032879;28;20025;-86
2024/01/07 07:39:52;;;;;;;16.02;3.63;;;27.30;62.50;;;;;;5054131;28;20126;-85
2024/01/07 07:42:19;;;;;;;16.33;3.60;;;27.20;62.90;;;;;;5052009;28;20022;-82
2024/01/07 07:44:48;;;;;;;13.90;2.78;;;27.20;62.90;;;;;;5036015;28;20380;-85
2024/01/07 07:47:15;;;;;;;13.80;2.72;;;27.20;62.40;;;;;;5038575;28;20035;-81
2024/01/07 07:49:42;;;;;;;19.20;3.65;;;27.10;62.60;;;;;;5045224;28;20179;-83
2024/01/07 07:52:10;;;;;;;17.80;3.10;;;27.10;63.10;;;;;;5034424;28;20045;-87
2024/01/07 07:54:40;;;;;;;14.38;2.80;;;27.00;63.70;;;;;;5029941;28;20025;-82
2024/01/07 07:57:08;;;;;;;11.93;2.97;;;27.00;64.00;;;;;;5026094;28;20403;-82
2024/01/07 07:59:35;;;;;;;14.50;3.38;;;27.00;64.00;;;;;;5034622;28;20491;-81
2024/01/07 08:02:03;;;;;;;13.27;3.45;;;27.00;64.10;;;;;;5020605;28;20029;-84
2024/01/07 08:04:30;;;;;;;16.10;3.45;;;27.00;64.30;;;;;;5033965;28;20492;-80
2024/01/07 08:06:59;;;;;;;18.33;3.60;;;27.00;64.30;;;;;;5038298;28;20536;-78
2024/01/07 08:09:26;;;;;;;19.45;3.53;;;26.90;64.60;;;;;;5034488;28;20033;-83
2024/01/07 08:11:54;;;;;;;16.13;3.13;;;26.90;64.90;;;;;;5034873;28;20032;-79
2024/01/07 08:14:21;;;;;;;12.18;2.63;;;26.90;64.90;;;;;;5035394;28;20071;-85
2024/01/07 08:16:50;;;;;;;16.85;3.50;;;26.80;65.10;;;;;;5032722;28;20104;-85
2024/01/07 08:19:17;;;;;;;23.25;3.75;;;26.70;65.30;;;;;;5039224;28;20504;-80
2024/01/07 08:21:45;;;;;;;15.43;3.58;;;26.70;65.70;;;;;;5030053;28;20045;-87
2024/01/07 08:24:12;;;;;;;17.13;3.13;;;26.60;66.00;;;;;;5031954;28;20112;-89
2024/01/07 08:26:40;;;;;;;19.95;3.38;;;26.60;65.80;;;;;;5034143;28;20377;-87
2024/01/07 08:29:07;;;;;;;17.23;3.35;;;26.50;65.90;;;;;;5042794;28;20557;-84
2024/01/07 08:31:34;;;;;;;17.15;3.05;;;26.40;65.90;;;;;;5052495;28;20057;-86
2024/01/07 08:34:02;;;;;;;12.05;3.28;;;26.30;66.10;;;;;;5054979;28;20083;-82
2024/01/07 08:36:29;;;;;;;15.68;2.85;;;26.30;66.10;;;;;;5055022;28;20052;-86
2024/01/07 08:38:56;;;;;;;12.30;2.90;;;26.20;66.20;;;;;;5042482;28;20485;-85
2024/01/07 08:41:24;;;;;;;14.52;2.65;;;26.10;66.40;;;;;;5038859;28;20029;-88
2024/01/07 08:43:51;;;;;;;15.27;3.05;;;26.10;66.10;;;;;;5040013;28;20017;-79
2024/01/07 08:46:21;;;;;;;14.02;2.92;;;26.00;65.80;;;;;;5041291;28;20044;-84
2024/01/07 08:48:48;;;;;;;17.35;3.47;;;26.00;65.40;;;;;;5034436;28;20048;-81
2024/01/07 08:51:16;;;;;;;10.80;2.63;;;25.90;65.90;;;;;;5031855;28;20519;-87
2024/01/07 08:53:43;;;;;;;14.40;3.00;;;25.80;66.10;;;;;;5032598;28;20480;-86
2024/01/07 08:56:12;;;;;;;12.93;2.30;;;25.80;65.90;;;;;;5032686;28;20037;-79
2024/01/07 08:58:42;;;;;;;14.52;2.50;;;25.80;66.30;;;;;;5025452;28;20018;-87
2024/01/07 09:01:09;;;;;;;14.20;3.17;;;25.70;66.00;;;;;;5014702;28;20097;-78
2024/01/07 09:03:36;;;;;;;15.15;2.80;;;25.70;66.50;;;;;;5026974;28;20049;-77
2024/01/07 09:06:04;;;;;;;14.93;2.80;;;25.60;66.70;;;;;;5033148;28;20030;-79
2024/01/07 09:08:32;;;;;;;12.43;2.47;;;25.60;66.60;;;;;;5032309;28;20037;-79
2024/01/07 09:11:01;;;;;;;16.23;3.50;;;25.60;67.00;;;;;;5030001;28;20021;-78
2024/01/07 09:13:28;;;;;;;10.80;2.67;;;25.50;67.20;;;;;;5026922;28;20026;-84
2024/01/07 09:15:56;;;;;;;16.08;3.05;;;25.50;67.60;;;;;;5033517;28;20076;-87
2024/01/07 09:18:23;;;;;;;18.00;3.35;;;25.40;67.80;;;;;;5027610;28;20025;-86
2024/01/07 09:20:50;;;;;;;16.10;2.88;;;25.40;67.90;;;;;;5035641;28;20112;-82
2024/01/07 09:23:18;;;;;;;16.58;2.90;;;25.30;68.10;;;;;;5047690;28;20049;-88
2024/01/07 09:25:46;;;;;;;16.90;3.15;;;25.30;68.40;;;;;;5030956;28;20080;-78
2024/01/07 09:28:13;;;;;;;15.15;3.05;;;25.30;68.50;;;;;;5031892;28;20064;-80
2024/01/07 09:30:40;;;;;;;14.07;3.00;;;25.20;68.60;;;;;;5028855;28;20028;-82
2024/01/07 09:33:08;;;;;;;10.90;2.38;;;25.20;68.90;;;;;;5031032;28;20030;-85
2024/01/07 09:35:35;;;;;;;14.82;3.30;;;25.20;69.00;;;;;;5036923;28;20496;-85
2024/01/07 09:38:03;;;;;;;12.90;2.50;;;25.10;69.30;;;;;;5035860;28;20033;-88
2024/01/07 09:40:31;;;;;;;15.20;2.63;;;25.10;69.50;;;;;;5030138;28;21106;-88
2024/01/07 09:42:59;;;;;;;15.73;2.78;;;25.20;69.60;;;;;;5039433;28;20029;-84
2024/01/07 09:45:26;;;;;;;18.40;3.22;;;25.10;69.70;;;;;;5034899;28;20029;-82
2024/01/07 09:47:54;;;;;;;17.65;2.53;;;25.10;69.80;;;;;;5036172;28;20061;-84
2024/01/07 09:50:21;;;;;;;12.50;2.88;;;25.10;70.00;;;;;;5042327;28;20131;-85
2024/01/07 09:52:52;;;;;;;14.25;2.75;;;25.10;70.00;;;;;;5043163;28;20029;-87
2024/01/07 09:55:29;;;;;;;16.00;2.65;;;25.10;70.10;;;;;;5034749;28;20495;-79
2024/01/07 09:57:57;;;;;;;17.02;3.10;;;25.00;70.10;;;;;;5031960;28;20041;-88
2024/01/07 10:00:29;;;;;;;15.23;3.13;;;25.10;70.10;;;;;;5031871;28;20377;-79
2024/01/07 10:02:56;;;;;;;11.38;2.40;;;25.00;70.30;;;;;;5028681;28;20053;-81
2024/01/07 10:05:24;;;;;;;12.20;2.70;;;25.00;70.30;;;;;;5005194;28;20044;-82
2024/01/07 10:07:55;;;;;;;13.25;2.50;;;24.90;70.30;;;;;;5002788;28;20038;-88
2024/01/07 10:10:22;;;;;;;17.42;2.83;;;24.90;70.40;;;;;;5014526;28;20120;-87
2024/01/07 10:12:52;;;;;;;11.13;2.45;;;24.90;70.50;;;;;;5001625;28;20447;-86
2024/01/07 10:15:20;;;;;;;14.60;2.67;;;24.90;70.50;;;;;;4997794;28;20068;-80
2024/01/07 10:17:48;;;;;;;13.30;3.00;;;24.80;70.50;;;;;;5015882;28;20044;-83
2024/01/07 10:20:19;;;;;;;20.00;3.42;;;24.80;70.70;;;;;;5010874;28;20105;-86
2024/01/07 10:22:54;;;;;;;14.68;2.58;;;24.80;70.60;;;;;;5000060;28;20022;-78
2024/01/07 10:25:21;;;;;;;16.57;2.57;;;24.80;70.60;;;;;;4998996;28;20076;-78
2024/01/07 10:27:49;;;;;;;17.23;3.05;;;24.80;70.60;;;;;;5005273;28;20026;-83
2024/01/07 10:30:21;;;;;;;13.80;2.22;;;24.80;70.70;;;;;;5001787;28;20359;-77
2024/01/07 10:32:49;;;;;;;15.98;2.53;;;24.80;70.80;;;;;;5010023;28;20511;-77
2024/01/07 10:35:21;;;;;;;16.48;3.13;;;24.80;71.00;;;;;;5001192;28;20037;-81
2024/01/07 10:37:48;;;;;;;13.98;2.28;;;24.80;71.20;;;;;;4997771;28;20029;-84
2024/01/07 10:40:16;;;;;;;18.58;2.97;;;24.80;71.30;;;;;;5007388;28;20087;-79
2024/01/07 10:42:45;;;;;;;20.98;5.00;;;24.80;71.30;;;;;;5008542;28;20026;-79
2024/01/07 10:45:13;;;;;;;17.75;3.17;;;24.80;71.40;;;;;;5000983;28;20029;-78
2024/01/07 10:47:46;;;;;;;20.95;3.13;;;24.80;71.40;;;;;;5004508;28;20045;-78
2024/01/07 10:50:18;;;;;;;16.75;3.42;;;24.80;71.40;;;;;;5010809;28;20041;-85
2024/01/07 10:52:51;;;;;;;17.05;2.70;;;24.80;71.50;;;;;;5003961;28;20489;-84
2024/01/07 10:55:20;;;;;;;16.02;2.90;;;24.80;71.70;;;;;;5008105;28;20037;-79
2024/01/07 10:57:49;;;;;;;19.80;2.92;;;24.80;71.80;;;;;;5002619;28;20022;-80
2024/01/07 11:00:21;;;;;;;21.02;3.58;;;24.70;72.00;;;;;;5004278;28;20034;-80
2024/01/07 11:02:54;;;;;;;18.15;3.10;;;24.70;72.20;;;;;;5015635;28;20042;-79
2024/01/07 11:05:47;;;;;;;14.32;2.97;;;24.70;72.30;;;;;;5038513;28;20056;-87
2024/01/07 11:08:25;;;;;;;19.00;3.13;;;24.70;72.30;;;;;;5025322;28;20073;-82
2024/01/07 11:11:04;;;;;;;14.88;2.42;;;24.60;72.30;;;;;;5048001;28;20460;-82
2024/01/07 11:13:37;;;;;;;12.10;2.67;;;24.60;72.40;;;;;;5030751;28;20107;-81
2024/01/07 11:16:12;;;;;;;14.57;2.72;;;24.60;72.20;;;;;;5025305;28;20017;-78
2024/01/07 11:18:53;;;;;;;14.75;2.92;;;24.60;72.30;;;;;;5042450;28;20036;-88
2024/01/07 11:21:26;;;;;;;13.10;3.22;;;24.60;72.20;;;;;;5025691;28;20030;-82
2024/01/07 11:23:54;;;;;;;17.33;2.50;;;24.70;71.70;;;;;;5030093;28;20155;-79
2024/01/07 11:26:24;;;;;;;14.07;2.55;;;24.70;71.90;;;;;;5027764;28;20044;-81
2024/01/07 11:28:56;;;;;;;11.88;2.35;;;24.60;72.10;;;;;;5037854;28;20041;-81
2024/01/07 11:31:44;;;;;;;18.42;2.67;;;24.60;72.00;;;;;;5036991;28;20037;-81
2024/01/07 11:34:31;;;;;;;16.55;3.40;;;24.60;71.60;;;;;;5031007;28;20029;-85
2024/01/07 11:36:59;;;;;;;17.05;3.00;;;24.60;71.60;;;;;;5032756;28;20066;-84
2024/01/07 11:39:26;;;;;;;12.32;2.58;;;24.60;71.80;;;;;;5028004;28;20038;-81
2024/01/07 11:41:54;;;;;;;15.43;2.40;;;24.60;71.50;;;;;;5025992;28;20480;-81
2024/01/07 11:44:21;;;;;;;20.15;3.13;;;24.60;71.70;;;;;;5026969;28;20476;-82
2024/01/07 11:46:49;;;;;;;13.05;2.53;;;24.50;71.40;;;;;;5041795;28;20032;-88
2024/01/07 11:49:17;;;;;;;17.38;2.97;;;24.50;71.80;;;;;;5050145;28;20040;-87
2024/01/07 11:51:45;;;;;;;18.98;2.90;;;24.50;71.90;;;;;;5035211;28;20484;-86
2024/01/07 11:54:13;;;;;;;18.35;2.97;;;24.50;72.20;;;;;;5033336;28;20028;-78
2024/01/07 11:56:41;;;;;;;16.33;3.05;;;24.50;72.10;;;;;;5030194;28;20029;-83
2024/01/07 11:59:08;;;;;;;11.10;2.92;;;24.40;72.10;;;;;;5034093;28;20145;-77
2024/01/07 12:01:36;;;;;;;17.33;2.72;;;24.50;72.20;;;;;;5041922;28;20036;-78
2024/01/07 12:04:04;;;;;;;15.43;2.53;;;24.40;72.10;;;;;;5046282;28;20041;-77
2024/01/07 12:06:31;;;;;;;14.52;2.50;;;24.50;72.10;;;;;;5048915;28;20171;-79
2024/01/07 12:08:59;;;;;;;16.30;2.78;;;24.40;72.30;;;;;;5034443;28;20037;-80
2024/01/07 12:11:26;;;;;;;15.20;2.90;;;24.40;72.30;;;;;;5044304;28;20035;-79
2024/01/07 12:13:54;;;;;;;16.73;2.85;;;24.40;72.40;;;;;;5050122;28;20021;-77
2024/01/07 12:16:22;;;;;;;18.85;2.80;;;24.40;72.50;;;;;;5040666;28;20029;-86
2024/01/07 12:18:49;;;;;;;14.70;2.75;;;24.40;72.40;;;;;;5024425;28;20029;-79
2024/01/07 12:21:22;;;;;;;13.27;3.25;;;24.30;72.30;;;;;;5028487;28;20372;-79
2024/01/07 12:23:51;;;;;;;16.15;2.67;;;24.40;72.30;;;;;;5034311;28;20065;-77
2024/01/07 12:26:23;;;;;;;14.18;2.80;;;24.30;72.20;;;;;;5032955;28;20087;-78
2024/01/07 12:28:55;;;;;;;16.98;3.20;;;24.30;72.40;;;;;;5035948;28;20045;-79
2024/01/07 12:31:23;;;;;;;13.13;2.63;;;24.30;72.60;;;;;;5047554;28;20025;-84
2024/01/07 12:33:51;;;;;;;13.57;2.55;;;24.30;72.40;;;;;;5025739;28;20054;-84
2024/01/07 12:36:22;;;;;;;13.05;2.67;;;24.30;72.50;;;;;;5031000;28;20071;-79
2024/01/07 12:38:51;;;;;;;10.75;2.40;;;24.30;72.60;;;;;;5053192;28;20037;-78
2024/01/07 12:41:19;;;;;;;17.90;3.30;;;24.30;72.70;;;;;;5020071;28;20198;-80
2024/01/07 12:43:46;;;;;;;15.68;2.25;;;24.30;72.70;;;;;;5054265;28;20522;-84